Date,TemperatureHighF,TemperatureAvgF,TemperatureLowF,DewpointHighF,DewpointAvgF,DewpointLowF,HumidityHigh,HumidityAvg,HumidityLow,PressureMaxIn,PressureMinIn,WindSpeedMaxMPH,WindSpeedAvgMPH,GustSpeedMaxMPH,PrecipitationSumIn
2013-1-12,80,65,74,70,45,-100,85,68,69,30.14,30.10,16,-158,0,0.11
2013-1-13,84,64,73,73,41,-100,84,63,67,30.13,30.07,21,-155,0,0.00
2013-1-14,83,76,71,71,68,65,85,77,65,30.18,30.12,19,10,0,0.02
2013-1-15,83,76,73,72,69,66,83,77,68,30.14,30.05,19,11,0,0.00
2013-1-16,85,76,70,74,69,64,88,79,67,30.11,30.02,19,8,0,0.28
2013-1-17,81,72,62,76,68,57,95,88,78,30.09,29.97,31,9,0,0.29
2013-1-18,71,64,54,63,57,49,85,76,66,30.23,30.09,25,15,0,0.00
2013-1-19,73,70,68,70,66,62,95,85,72,30.21,30.11,15,7,0,0.38
2013-1-20,79,72,66,73,68,65,97,89,79,30.14,30.02,16,8,0,0.03
2013-1-21,83,73,67,75,69,65,92,86,73,30.07,29.97,19,6,0,0.13
2013-1-22,76,69,64,65,62,56,94,77,63,30.22,30.00,26,15,0,0.00
2013-1-23,75,69,63,61,57,54,82,68,57,30.30,30.20,23,12,0,0.00
2013-1-24,77,67,61,58,56,49,85,67,49,30.29,30.21,16,9,0,0.00
2013-1-25,77,68,60,64,58,53,79,70,55,30.29,30.18,12,6,0,0.00
2013-1-26,77,70,62,63,60,54,86,72,54,30.26,30.17,13,7,0,0.00
2013-1-27,78,72,65,66,63,60,85,73,59,30.29,30.20,20,9,0,0.00
2013-1-28,82,76,72,71,68,64,85,76,65,30.32,30.23,22,15,0,0.00
2013-1-29,81,75,72,74,70,68,88,84,75,30.24,30.13,21,12,0,0.08
2013-1-30,81,75,72,71,68,66,88,79,71,30.12,29.98,26,12,0,0.00
2013-1-31,74,68,60,71,61,45,94,80,54,30.18,29.95,22,10,0,0.00
2013-2-1,74,64,54,60,53,44,79,67,57,30.27,30.16,21,13,0,0.00
2013-2-2,75,66,58,58,52,41,76,61,51,30.26,30.13,14,6,0,0.00
2013-2-3,70,65,62,52,49,44,68,57,41,30.12,30.08,14,4,0,0.00
2013-2-4,78,65,52,58,52,45,80,64,41,30.14,30.04,13,5,0,0.00
2013-2-5,82,70,60,66,61,55,83,73,54,30.09,30.01,12,5,0,0.00
2013-2-6,81,72,65,70,65,62,91,79,67,30.11,30.03,19,7,0,0.00
2013-2-7,83,76,71,72,67,64,83,76,66,30.08,29.95,18,9,0,0.04
2013-2-8,82,74,69,71,68,62,92,81,58,30.04,29.91,24,9,0,0.23
2013-2-9,79,73,67,70,66,63,91,80,64,30.18,30.02,22,11,0,0.00
2013-2-10,75,72,70,66,64,62,82,76,71,30.27,30.16,25,17,0,0.00
2013-2-11,82,75,70,70,67,63,84,76,64,30.23,30.12,21,11,0,0.01
2013-2-12,83,76,71,73,70,66,88,81,70,30.12,29.98,19,7,0,0.00
2013-2-13,82,76,72,75,72,68,93,87,79,30.02,29.90,22,8,0,0.00
2013-2-14,77,71,64,73,68,63,96,92,84,30.02,29.88,30,9,0,1.23
2013-2-15,73,68,65,69,66,64,96,93,84,30.03,29.95,23,8,0,0.43
2013-2-16,72,65,56,65,59,47,96,80,57,30.09,29.88,33,16,0,0.00
2013-2-17,60,53,46,48,35,26,73,53,32,30.31,30.09,28,16,0,0.00
2013-2-18,69,60,49,59,49,37,75,66,57,30.33,30.21,25,16,0,0.00
2013-2-19,80,73,68,68,63,57,84,72,63,30.20,30.09,21,9,0,0.00
2013-2-20,78,72,65,71,67,64,95,84,71,30.12,30.02,13,5,0,0.07
2013-2-21,86,76,71,74,70,66,87,79,63,30.11,30.00,16,8,0,0.00
2013-2-22,84,77,73,76,72,68,92,84,75,30.11,30.02,23,13,0,0.51
2013-2-23,83,77,71,75,72,68,93,85,75,30.05,29.92,22,10,0,0.50
2013-2-24,88,77,72,79,73,71,96,89,70,30.00,29.91,13,6,0,0.01
2013-2-25,84,77,72,77,73,69,93,87,76,29.92,29.82,21,6,0,0.00
2013-2-26,83,78,75,76,74,71,92,86,78,29.90,29.80,26,10,0,0.01
2013-2-27,77,71,64,74,66,62,94,85,64,29.97,29.86,18,6,0,0.54
2013-2-28,71,65,60,64,56,49,95,74,47,30.01,29.91,16,8,0,0.00
2013-3-1,66,63,60,58,53,49,80,71,58,29.99,29.91,16,9,0,0.00
2013-3-2,66,59,54,52,46,40,76,62,49,30.04,29.95,37,16,0,0.00
2013-3-3,62,56,51,46,45,42,77,67,53,30.15,29.97,31,14,0,0.00
2013-3-4,66,55,44,49,42,37,78,63,39,30.21,30.12,26,10,0,0.00
2013-3-5,80,66,54,63,56,47,80,70,56,30.18,30.09,12,5,0,0.00
2013-3-6,76,66,55,65,54,41,92,70,36,30.09,29.94,30,17,0,0.00
2013-3-7,71,60,49,57,49,40,87,67,43,30.18,30.07,23,10,0,0.00
2013-3-8,73,64,56,57,54,51,89,71,53,30.20,30.11,13,8,0,0.01
2013-3-9,75,67,59,62,56,51,84,70,57,30.20,30.10,21,10,0,0.00
2013-3-10,76,66,68,63,49,-100,78,64,59,30.17,30.08,21,-52,0,0.00
2013-3-11,82,58,69,67,30,-100,79,59,59,30.11,29.96,25,-197,0,0.00
2013-3-12,80,70,71,73,58,-100,87,76,76,30.01,29.92,23,-52,0,0.00
2013-3-13,75,66,59,67,57,-100,92,76,55,30.13,29.98,21,0,0,0.00
2013-3-14,70,61,56,55,48,-100,82,68,51,30.21,30.09,25,-9,0,0.00
2013-3-15,74,63,54,58,50,-100,82,68,57,30.25,30.16,15,-12,0,0.00
2013-3-16,81,68,60,61,57,55,85,69,48,30.20,30.10,15,5,0,0.00
2013-3-17,80,70,64,65,61,57,82,73,60,30.16,30.04,19,6,0,0.13
2013-3-18,82,71,68,71,63,-100,94,82,70,30.08,29.98,20,-11,0,0.36
2013-3-19,78,72,68,72,67,-100,94,87,73,30.01,29.86,16,-8,0,0.00
2013-3-20,84,74,67,75,69,61,95,84,63,29.98,29.82,34,5,0,0.01
2013-3-21,74,67,62,63,58,51,92,73,53,29.96,29.83,20,9,0,0.06
2013-3-22,80,71,62,71,62,54,90,75,61,30.02,29.91,18,7,0,0.03
2013-3-23,84,78,72,78,74,70,94,88,79,29.99,29.81,19,6,0,0.01
2013-3-24,88,79,73,76,73,69,97,82,60,29.90,29.68,40,15,0,0.08
2013-3-25,80,74,67,73,63,43,94,71,39,29.99,29.75,22,10,0,0.00
2013-3-26,70,62,55,47,41,-100,63,49,34,30.21,29.99,32,7,0,0.00
2013-3-27,68,58,48,52,45,37,74,63,50,30.25,30.17,22,12,0,0.00
2013-3-28,72,62,52,55,47,-100,80,61,36,30.27,30.18,18,0,0,0.00
2013-3-29,76,66,57,57,52,-100,78,64,47,30.29,30.21,14,-2,0,0.04
2013-3-30,79,70,66,60,54,-100,70,60,46,30.27,30.17,14,-2,0,0.00
2013-3-31,84,74,68,71,63,-100,83,71,63,30.19,30.05,16,0,0,0.00
2013-4-1,84,74,72,75,66,-100,92,78,52,30.06,29.96,24,-12,0,0.33
2013-4-2,81,73,67,70,66,-100,95,81,65,30.09,29.99,14,-3,0,0.00
2013-4-3,80,75,73,71,69,68,85,81,72,30.07,30.01,20,11,0,0.00
2013-4-4,80,75,69,74,71,68,95,86,79,30.05,29.91,27,11,0,0.51
2013-4-5,74,70,67,72,66,65,92,89,82,29.99,29.83,30,10,0,0.44
2013-4-6,75,68,60,66,61,-100,92,80,65,30.09,29.93,21,2,0,0.01
2013-4-7,77,74,72,66,64,62,77,71,64,30.15,30.03,21,13,0,0.00
2013-4-8,82,75,69,67,64,61,78,68,54,30.15,30.05,14,8,0,0.00
2013-4-9,83,76,73,70,68,66,84,76,60,30.16,30.06,21,14,0,0.00
2013-4-10,85,78,74,74,71,68,87,80,70,30.11,30.00,22,13,0,0.00
2013-4-11,80,77,76,74,72,71,89,84,78,30.03,29.91,22,16,0,0.00
2013-4-12,87,80,77,80,76,73,92,87,77,29.96,29.88,21,9,0,0.01
2013-4-13,84,77,73,78,74,69,95,89,75,29.97,29.89,12,5,0,0.39
2013-4-14,89,81,73,80,76,70,95,86,73,29.98,29.91,14,8,0,0.19
2013-4-15,90,79,72,81,73,-100,94,85,71,30.05,29.93,24,-8,0,0.66